createdAt,value
2023-04-03T00:01:40.063Z,6.1
2023-04-03T00:03:40.408Z,6.1
2023-04-03T00:05:40.127Z,6.1
2023-04-03T00:07:40.198Z,6.1
2023-04-03T00:09:40.270Z,6.1
2023-04-03T00:11:40.373Z,6
2023-04-03T00:13:40.596Z,6
2023-04-03T00:15:40.924Z,6
2023-04-03T00:17:40.523Z,6
2023-04-03T00:19:40.551Z,6
2023-04-03T00:21:40.568Z,6.1
2023-04-03T00:23:40.675Z,6.1
2023-04-03T00:25:40.928Z,6.1
2023-04-03T00:27:41.226Z,6.1
2023-04-03T00:29:40.857Z,6.1
2023-04-03T00:31:40.957Z,6.1
2023-04-03T00:33:41.717Z,6.1
2023-04-03T00:35:41.633Z,6.1
2023-04-03T00:37:42.759Z,6.1
2023-04-03T00:39:41.338Z,6.1
2023-04-03T00:41:41.375Z,6.1
2023-04-03T00:43:41.892Z,6.1
2023-04-03T00:45:43.239Z,6.1
2023-04-03T00:47:42.150Z,6.1
2023-04-03T00:49:42.904Z,6.1
2023-04-03T00:51:41.507Z,6.1
2023-04-03T00:53:46.250Z,6.1
2023-04-03T00:55:43.261Z,6.1
2023-04-03T00:57:42.821Z,6.1
2023-04-03T00:59:47.072Z,6.1
2023-04-03T01:01:43.080Z,6.1
2023-04-03T01:03:42.429Z,6.1
2023-04-03T01:05:42.005Z,6.1
2023-04-03T01:07:41.959Z,6.1
2023-04-03T01:09:43.324Z,6.1
2023-04-03T01:11:42.212Z,6.1
2023-04-03T01:13:42.772Z,6.1
2023-04-03T01:15:42.158Z,6.1
2023-04-03T01:17:44.900Z,6.1
2023-04-03T01:19:54.071Z,6.1
2023-04-03T01:22:04.934Z,6.2
2023-04-03T01:23:57.958Z,6.2
2023-04-03T01:25:45.151Z,6.2
2023-04-03T01:27:42.555Z,6.2
2023-04-03T01:29:44.454Z,6.2
2023-04-03T01:31:47.788Z,6.3
2023-04-03T01:33:43.806Z,6.3
2023-04-03T01:35:43.132Z,6.3
2023-04-03T01:37:43.769Z,6.3
2023-04-03T01:39:42.976Z,6.3
2023-04-03T01:41:47.452Z,6.3
2023-04-03T01:43:43.341Z,6.3
2023-04-03T01:45:43.685Z,6.2
2023-04-03T01:47:44.013Z,6.2
2023-04-03T01:49:43.433Z,6.2
2023-04-03T01:51:43.420Z,6.1
2023-04-03T01:53:43.478Z,6.1
2023-04-03T01:55:43.785Z,6.1
2023-04-03T01:57:43.659Z,6.1
2023-04-03T01:59:44.029Z,6.1
2023-04-03T02:01:43.812Z,6
2023-04-03T02:03:43.960Z,6
2023-04-03T02:05:44.616Z,6
2023-04-03T02:07:44.045Z,6
2023-04-03T02:09:44.042Z,6
2023-04-03T02:11:44.364Z,6
2023-04-03T02:13:44.172Z,6
2023-04-03T02:15:44.097Z,6
2023-04-03T02:17:45.582Z,6
2023-04-03T02:19:44.277Z,6
2023-04-03T02:21:44.322Z,6
2023-04-03T02:23:44.411Z,6
2023-04-03T02:25:44.446Z,6
2023-04-03T02:27:44.500Z,6
2023-04-03T02:29:44.800Z,6
2023-04-03T02:31:44.654Z,6
2023-04-03T02:33:45.828Z,6
2023-04-03T02:35:44.901Z,6
2023-04-03T02:37:44.882Z,6
2023-04-03T02:39:45.564Z,6
2023-04-03T02:41:48.894Z,6
2023-04-03T02:43:45.146Z,6
2023-04-03T02:45:45.511Z,6
2023-04-03T02:47:45.199Z,5.9
2023-04-03T02:49:45.294Z,5.9
2023-04-03T02:51:45.942Z,5.9
2023-04-03T02:53:48.507Z,5.9
2023-04-03T02:55:46.169Z,5.9
2023-04-03T02:57:46.458Z,5.9
2023-04-03T02:59:45.879Z,5.9
2023-04-03T03:01:45.855Z,6
2023-04-03T03:03:45.910Z,6.1
2023-04-03T03:05:46.029Z,6.1
2023-04-03T03:07:45.949Z,6.1
2023-04-03T03:09:46.114Z,6.1
2023-04-03T03:11:46.064Z,6.1
2023-04-03T03:13:46.268Z,6.1
2023-04-03T03:15:46.238Z,6.1
2023-04-03T03:17:46.312Z,6.1
2023-04-03T03:19:46.496Z,6.1
2023-04-03T03:21:46.495Z,6.2
2023-04-03T03:23:46.663Z,6.2
2023-04-03T03:25:46.683Z,6.2
2023-04-03T03:27:47.106Z,6.2
2023-04-03T03:29:47.725Z,6.2
2023-04-03T03:31:46.967Z,6.3
2023-04-03T03:33:47.216Z,6.3
2023-04-03T03:35:47.141Z,6.3
2023-04-03T03:37:47.199Z,6.3
2023-04-03T03:39:47.299Z,6.3
2023-04-03T03:41:48.268Z,6.4
2023-04-03T03:43:47.789Z,6.5
2023-04-03T03:45:52.125Z,6.5
2023-04-03T03:47:47.670Z,6.5
2023-04-03T03:49:48.813Z,6.5
2023-04-03T03:51:47.908Z,6.6
2023-04-03T03:53:49.652Z,6.6
2023-04-03T03:55:48.001Z,6.6
2023-04-03T03:57:48.057Z,6.6
2023-04-03T03:59:48.115Z,6.6
2023-04-03T04:01:48.294Z,6.7
2023-04-03T04:03:51.930Z,6.7
2023-04-03T04:05:48.470Z,6.7
2023-04-03T04:07:48.587Z,6.7
2023-04-03T04:09:48.697Z,6.7
2023-04-03T04:11:50.970Z,6.6
2023-04-03T04:13:49.001Z,6.6
2023-04-03T04:15:48.999Z,6.6
2023-04-03T04:17:49.621Z,6.6
2023-04-03T04:19:49.123Z,6.8
2023-04-03T04:21:49.418Z,6.8
2023-04-03T04:23:49.506Z,6.8
2023-04-03T04:25:49.907Z,6.9
2023-04-03T04:27:49.645Z,7
2023-04-03T04:29:50.381Z,7
2023-04-03T04:31:50.346Z,7.1
2023-04-03T04:33:50.090Z,7.1
2023-04-03T04:35:50.712Z,7.1
2023-04-03T04:37:50.525Z,7.1
2023-04-03T04:39:50.105Z,7.1
2023-04-03T04:41:50.120Z,7.1
2023-04-03T04:43:50.643Z,7.2
2023-04-03T04:46:01.304Z,7.2
2023-04-03T04:47:50.350Z,7.4
2023-04-03T04:49:50.815Z,7.4
2023-04-03T04:51:52.228Z,7.4
2023-04-03T04:53:51.354Z,7.4
2023-04-03T04:55:50.737Z,7.4
2023-04-03T04:57:51.165Z,7.2
2023-04-03T04:59:51.825Z,7.2
2023-04-03T05:01:51.250Z,7.2
2023-04-03T05:03:51.932Z,7.2
2023-04-03T05:05:51.562Z,7.4
2023-04-03T05:07:51.416Z,7.4
2023-04-03T05:09:51.671Z,7.4
2023-04-03T05:11:53.039Z,7.5
2023-04-03T05:13:53.597Z,7.5
2023-04-03T05:15:52.106Z,7.5
2023-04-03T05:17:51.814Z,7.5
2023-04-03T05:19:52.538Z,7.5
2023-04-03T05:21:52.547Z,7.5
2023-04-03T05:23:52.570Z,7.5
2023-04-03T05:25:53.041Z,7.6
2023-04-03T05:27:52.492Z,7.7
2023-04-03T05:29:54.946Z,7.7
2023-04-03T05:31:52.827Z,7.9
2023-04-03T05:33:52.709Z,7.9
2023-04-03T05:35:57.619Z,7.9
2023-04-03T05:37:52.860Z,7.9
2023-04-03T05:39:53.029Z,7.9
2023-04-03T05:41:52.991Z,8.1
2023-04-03T05:43:53.916Z,8.1
2023-04-03T05:45:53.589Z,8.1
2023-04-03T05:47:53.518Z,8.1
2023-04-03T05:49:53.960Z,8.1
2023-04-03T05:51:58.046Z,8.4
2023-04-03T05:54:03.271Z,8.9
2023-04-03T05:55:53.911Z,8.9
2023-04-03T05:57:54.508Z,9.1
2023-04-03T05:59:54.537Z,9.3
2023-04-03T06:01:54.991Z,9.5
2023-04-03T06:03:54.517Z,9.5
2023-04-03T06:05:54.593Z,9.6
2023-04-03T06:07:54.741Z,9.8
2023-04-03T06:09:57.799Z,9.8
2023-04-03T06:11:56.832Z,9.7
2023-04-03T06:13:55.135Z,9.9
2023-04-03T06:15:56.662Z,10
2023-04-03T06:17:55.915Z,10
2023-04-03T06:19:55.809Z,9.8
2023-04-03T06:21:56.204Z,9.6
2023-04-03T06:23:56.219Z,10.2
2023-04-03T06:25:56.366Z,10.4
2023-04-03T06:27:56.539Z,10.3
2023-04-03T06:29:56.813Z,10.3
2023-04-03T06:31:57.588Z,10.5
2023-04-03T06:33:57.123Z,10.3
2023-04-03T06:35:58.461Z,10.3
2023-04-03T06:37:57.544Z,10.2
2023-04-03T06:39:58.266Z,10.2
2023-04-03T06:42:04.514Z,10.2
2023-04-03T06:43:58.136Z,10.3
2023-04-03T06:45:58.275Z,10.4
2023-04-03T06:47:58.628Z,10.4
2023-04-03T06:49:58.918Z,10.4
2023-04-03T06:52:00.323Z,10.3
2023-04-03T06:54:00.149Z,10.2
2023-04-03T06:55:59.235Z,10
2023-04-03T06:57:59.551Z,10
2023-04-03T06:59:59.595Z,10
2023-04-03T07:01:59.830Z,9.8
2023-04-03T07:03:59.969Z,9.8
2023-04-03T07:06:00.355Z,10
2023-04-03T07:08:00.348Z,10.1
2023-04-03T07:10:00.444Z,10.2
2023-04-03T07:12:00.617Z,10.2
2023-04-03T07:14:00.840Z,10.3
2023-04-03T07:16:01.208Z,10.5
2023-04-03T07:18:01.096Z,10.6
2023-04-03T07:20:05.476Z,10.6
2023-04-03T07:22:01.426Z,10.8
2023-04-03T07:24:01.744Z,11.1
2023-04-03T07:26:02.111Z,11.5
2023-04-03T07:28:02.182Z,11.6
2023-04-03T07:30:02.667Z,11.7
2023-04-03T07:32:02.578Z,11.8
2023-04-03T07:34:02.866Z,11.6
2023-04-03T07:36:03.641Z,11.7
2023-04-03T07:38:03.280Z,12
2023-04-03T07:40:04.257Z,12.2
2023-04-03T07:42:03.830Z,12
2023-04-03T07:44:03.846Z,12.2
2023-04-03T07:46:05.733Z,12.2
2023-04-03T07:48:04.989Z,12.4
2023-04-03T07:50:05.898Z,12.4
2023-04-03T07:52:04.824Z,12.6
2023-04-03T07:54:05.059Z,12.6
2023-04-03T07:56:05.634Z,12.8
2023-04-03T07:58:05.594Z,12.8
2023-04-03T08:00:12.567Z,12.9
2023-04-03T08:02:06.030Z,12.6
2023-04-03T08:04:06.491Z,12.7
2023-04-03T08:06:11.891Z,12.7
2023-04-03T08:08:08.022Z,12.9
2023-04-03T08:10:07.819Z,12.8
2023-04-03T08:12:07.290Z,12.8
2023-04-03T08:14:07.563Z,12.9
2023-04-03T08:16:11.243Z,13.1
2023-04-03T08:18:08.048Z,13.1
2023-04-03T08:20:10.782Z,13.1
2023-04-03T08:22:08.457Z,13
2023-04-03T08:24:09.368Z,12.9
2023-04-03T08:26:10.357Z,13.2
2023-04-03T08:28:10.514Z,13.2
2023-04-03T08:30:09.994Z,13.2
2023-04-03T08:32:09.683Z,13.2
2023-04-03T08:34:09.836Z,13.5
2023-04-03T08:36:19.077Z,13.5
2023-04-03T08:38:10.882Z,13.2
2023-04-03T08:40:14.991Z,13.1
2023-04-03T08:42:19.646Z,13.1
2023-04-03T08:44:20.858Z,13.1
2023-04-03T08:46:14.760Z,13.4
2023-04-03T08:48:16.068Z,13.7
2023-04-03T08:50:15.774Z,13.7
2023-04-03T08:52:14.616Z,14.1
2023-04-03T08:54:24.302Z,13.5
2023-04-03T08:56:15.671Z,13.3
2023-04-03T08:58:16.243Z,13.6
2023-04-03T09:00:20.150Z,13.8
2023-04-03T09:02:27.141Z,14
2023-04-03T09:04:17.696Z,13.7
2023-04-03T09:06:18.608Z,13.5
2023-04-03T09:08:22.554Z,13.8
2023-04-03T09:10:17.367Z,13.6
2023-04-03T09:12:21.355Z,13.7
2023-04-03T09:14:24.158Z,13.7
2023-04-03T09:16:26.164Z,13.7
2023-04-03T09:18:20.933Z,14
2023-04-03T09:20:24.629Z,14.1
2023-04-03T09:22:20.488Z,14.5
2023-04-03T09:24:17.441Z,14.5
2023-04-03T09:26:21.532Z,14.5
2023-04-03T09:28:16.561Z,14.5
2023-04-03T09:30:19.255Z,14.6
2023-04-03T09:32:24.099Z,14.3
2023-04-03T09:34:23.312Z,14.2
2023-04-03T09:36:40.972Z,14.1
2023-04-03T09:38:21.970Z,14.1
2023-04-03T09:40:35.034Z,14.1
2023-04-03T09:42:21.338Z,14
2023-04-03T09:44:22.592Z,14
2023-04-03T09:46:25.913Z,14.2
2023-04-03T09:48:21.412Z,14.2
2023-04-03T09:50:21.851Z,14.2
2023-04-03T09:52:24.053Z,14.2
2023-04-03T09:54:35.704Z,14.2
2023-04-03T09:56:24.558Z,14.4
2023-04-03T09:58:27.033Z,14.4
2023-04-03T10:00:23.802Z,14.4
2023-04-03T10:02:31.266Z,14.4
2023-04-03T10:04:20.948Z,14.4
2023-04-03T10:06:23.648Z,14.6
2023-04-03T10:08:24.485Z,14.6
2023-04-03T10:10:22.981Z,14.6
2023-04-03T10:12:22.028Z,14.4
2023-04-03T10:14:22.126Z,14.4
2023-04-03T10:16:27.609Z,14.6
2023-04-03T10:18:32.906Z,15
2023-04-03T10:20:33.686Z,14.9
2023-04-03T10:22:32.809Z,15
2023-04-03T10:24:28.829Z,15
2023-04-03T10:26:35.986Z,15
2023-04-03T10:28:33.033Z,15.1
2023-04-03T10:30:34.312Z,14.9
2023-04-03T10:32:42.154Z,14.8
2023-04-03T10:34:30.207Z,14.8
2023-04-03T10:36:34.817Z,14.8
2023-04-03T10:38:33.724Z,14.8
2023-04-03T10:40:34.184Z,14.8
2023-04-03T10:42:32.293Z,14.8
2023-04-03T10:44:37.041Z,14.6
2023-04-03T10:46:33.685Z,14.5
2023-04-03T10:48:38.359Z,14.5
2023-04-03T10:50:38.464Z,14.5
2023-04-03T10:52:38.837Z,14.6
2023-04-03T10:54:36.525Z,15
2023-04-03T10:56:36.411Z,15.1
2023-04-03T10:58:35.465Z,15.1
2023-04-03T11:00:37.073Z,15.1
2023-04-03T11:02:32.091Z,14.9
2023-04-03T11:04:34.778Z,14.9
2023-04-03T11:06:36.196Z,15
2023-04-03T11:08:35.678Z,15
2023-04-03T11:10:40.869Z,15
2023-04-03T11:12:41.093Z,14.9
2023-04-03T11:14:32.642Z,14.9
2023-04-03T11:16:43.608Z,14.7
2023-04-03T11:18:38.494Z,14.7
2023-04-03T11:20:33.431Z,14.5
2023-04-03T11:22:33.869Z,14.5
2023-04-03T11:24:34.269Z,14.7
2023-04-03T11:26:37.316Z,14.7
2023-04-03T11:28:32.141Z,14.5
2023-04-03T11:30:40.290Z,14.3
2023-04-03T11:32:49.163Z,14.3
2023-04-03T11:34:37.028Z,14.3
2023-04-03T11:36:39.667Z,14.4
2023-04-03T11:38:36.874Z,14.4
2023-04-03T11:40:37.203Z,14.4
2023-04-03T11:42:38.942Z,14.3
2023-04-03T11:44:37.850Z,14.2
2023-04-03T11:46:50.085Z,14.2
2023-04-03T11:48:50.699Z,14.4
2023-04-03T11:50:45.129Z,14.3
2023-04-03T11:52:58.255Z,14.2
2023-04-03T11:54:46.096Z,14.2
2023-04-03T11:56:35.730Z,14.2
2023-04-03T11:58:35.959Z,14.1
2023-04-03T12:00:52.561Z,14.1
2023-04-03T12:02:51.241Z,14.2
2023-04-03T12:04:36.777Z,14.3
2023-04-03T12:06:54.005Z,14.3
2023-04-03T12:08:47.016Z,14.3
2023-04-03T12:10:38.207Z,14.3
2023-04-03T12:12:40.571Z,14.3
2023-04-03T12:14:38.077Z,14.3
2023-04-03T12:16:44.907Z,14.3
2023-04-03T12:18:43.989Z,14.1
2023-04-03T12:20:53.476Z,14.1
2023-04-03T12:22:53.953Z,14
2023-04-03T12:24:40.705Z,14
2023-04-03T12:26:48.817Z,14
2023-04-03T12:28:40.389Z,14
2023-04-03T12:30:43.857Z,14
2023-04-03T12:32:54.072Z,14.2
2023-04-03T12:35:04.037Z,14.2
2023-04-03T12:36:51.137Z,13.9
2023-04-03T12:38:58.382Z,13.9
2023-04-03T12:40:49.899Z,13.9
2023-04-03T12:43:04.037Z,13.9
2023-04-03T12:44:54.325Z,13.8
2023-04-03T12:46:45.882Z,13.8
2023-04-03T12:48:49.572Z,13.8
2023-04-03T12:50:46.057Z,13.8
2023-04-03T12:52:48.003Z,13.7
2023-04-03T12:54:45.915Z,13.7
2023-04-03T12:56:43.327Z,13.7
2023-04-03T12:58:43.695Z,13.7
2023-04-03T13:00:43.805Z,13.6
2023-04-03T13:02:45.662Z,13.6
2023-04-03T13:04:45.641Z,13.6
2023-04-03T13:06:45.160Z,13.6
2023-04-03T13:08:50.260Z,13.5
2023-04-03T13:10:53.440Z,13.5
2023-04-03T13:12:49.227Z,13.5
2023-04-03T13:14:52.869Z,13.5
2023-04-03T13:16:54.264Z,13.5
2023-04-03T13:18:51.759Z,13.5
2023-04-03T13:20:49.970Z,13.3
2023-04-03T13:22:53.581Z,13.4
2023-04-03T13:24:49.511Z,13.4
2023-04-03T13:26:46.885Z,13.4
2023-04-03T13:28:47.719Z,13.4
2023-04-03T13:30:58.478Z,13.4
2023-04-03T13:32:47.823Z,13.3
2023-04-03T13:34:47.882Z,13.3
2023-04-03T13:36:57.412Z,13.2
2023-04-03T13:38:59.689Z,13.2
2023-04-03T13:40:50.139Z,13.2
2023-04-03T13:43:00.134Z,13.2
2023-04-03T13:44:48.952Z,13.1
2023-04-03T13:46:50.269Z,13.1
2023-04-03T13:48:52.206Z,13.1
2023-04-03T13:50:59.013Z,13.1
2023-04-03T13:52:52.837Z,13.1
2023-04-03T13:54:55.271Z,13.1
2023-04-03T13:56:54.602Z,13.1
2023-04-03T13:58:56.401Z,13.1
2023-04-03T14:00:53.770Z,13.1
2023-04-03T14:02:54.354Z,13.1
2023-04-03T14:04:54.288Z,13.1
2023-04-03T14:06:51.277Z,13
2023-04-03T14:08:51.934Z,12.9
2023-04-03T14:10:51.942Z,12.9
2023-04-03T14:12:51.821Z,12.9
2023-04-03T14:14:52.541Z,12.9
2023-04-03T14:16:54.986Z,12.9
2023-04-03T14:18:52.528Z,12.9
2023-04-03T14:20:52.574Z,12.9
2023-04-03T14:22:53.275Z,12.7
2023-04-03T14:24:53.456Z,12.7
2023-04-03T14:26:54.832Z,12.7
2023-04-03T14:28:55.097Z,12.7
2023-04-03T14:30:53.649Z,12.7
2023-04-03T14:32:54.428Z,12.7
2023-04-03T14:34:54.078Z,12.7
2023-04-03T14:36:54.261Z,12.6
2023-04-03T14:38:55.513Z,12.6
2023-04-03T14:40:58.947Z,12.6
2023-04-03T14:42:55.520Z,12.6
2023-04-03T14:44:55.529Z,12.6
2023-04-03T14:46:57.157Z,12.5
2023-04-03T14:48:55.469Z,12.5
2023-04-03T14:51:05.204Z,12.5
2023-04-03T14:52:58.598Z,12.5
2023-04-03T14:54:57.298Z,12.4
2023-04-03T14:56:58.856Z,12.4
2023-04-03T14:59:02.406Z,12.2
2023-04-03T15:00:56.662Z,12.2
2023-04-03T15:02:57.121Z,12.2
2023-04-03T15:04:57.688Z,12.1
2023-04-03T15:06:57.217Z,12.1
2023-04-03T15:08:57.595Z,12.1
2023-04-03T15:10:58.730Z,12.1
2023-04-03T15:12:58.401Z,12.1
2023-04-03T15:15:02.045Z,12.1
2023-04-03T15:16:58.286Z,12.1
2023-04-03T15:18:58.441Z,12.1
2023-04-03T15:20:58.635Z,12.1
2023-04-03T15:22:59.147Z,12
2023-04-03T15:24:59.021Z,12
2023-04-03T15:27:01.140Z,12
2023-04-03T15:28:59.444Z,12
2023-04-03T15:30:59.961Z,12
2023-04-03T15:32:59.722Z,11.9
2023-04-03T15:35:00.352Z,11.9
2023-04-03T15:37:00.277Z,11.9
2023-04-03T15:39:00.205Z,11.9
2023-04-03T15:41:00.424Z,11.9
2023-04-03T15:43:00.690Z,11.9
2023-04-03T15:45:00.727Z,11.9
2023-04-03T15:47:01.997Z,11.8
2023-04-03T15:49:01.892Z,11.8
2023-04-03T15:51:01.415Z,11.8
2023-04-03T15:53:01.959Z,11.7
2023-04-03T15:55:02.610Z,11.6
2023-04-03T15:57:01.828Z,11.6
2023-04-03T15:59:02.095Z,11.6
2023-04-03T16:01:02.592Z,11.4
2023-04-03T16:03:08.644Z,11.4
2023-04-03T16:05:03.349Z,11.4
2023-04-03T16:07:03.376Z,11.3
2023-04-03T16:09:02.995Z,11.3
2023-04-03T16:11:03.449Z,11.3
2023-04-03T16:13:03.723Z,11.3
2023-04-03T16:15:04.623Z,11.3
2023-04-03T16:17:03.715Z,11.2
2023-04-03T16:19:04.444Z,11
2023-04-03T16:21:03.931Z,11
2023-04-03T16:23:03.963Z,11
2023-04-03T16:25:04.895Z,11
2023-04-03T16:27:04.126Z,11
2023-04-03T16:29:04.331Z,11
2023-04-03T16:31:06.579Z,10.9
2023-04-03T16:33:04.676Z,10.9
2023-04-03T16:35:05.733Z,10.9
2023-04-03T16:37:04.902Z,10.7
2023-04-03T16:39:05.009Z,10.6
2023-04-03T16:41:05.282Z,10.7
2023-04-03T16:43:05.365Z,10.5
2023-04-03T16:45:06.525Z,10.3
2023-04-03T16:47:06.453Z,10.1
2023-04-03T16:49:05.863Z,10.1
2023-04-03T16:51:05.784Z,10.1
2023-04-03T16:53:06.079Z,10
2023-04-03T16:55:06.841Z,10
2023-04-03T16:57:06.257Z,10.1
2023-04-03T16:59:06.469Z,10.1
2023-04-03T17:01:11.343Z,10.1
2023-04-03T17:03:06.588Z,10.1
2023-04-03T17:05:07.549Z,10.1
2023-04-03T17:07:06.763Z,10.1
2023-04-03T17:09:07.920Z,10.1
2023-04-03T17:11:07.219Z,10.1
2023-04-03T17:13:07.255Z,10
2023-04-03T17:15:08.100Z,10
2023-04-03T17:17:07.759Z,10
2023-04-03T17:19:07.576Z,10
2023-04-03T17:21:09.190Z,10
2023-04-03T17:23:17.832Z,10
2023-04-03T17:25:08.541Z,10
2023-04-03T17:27:07.985Z,10
2023-04-03T17:29:08.434Z,10
2023-04-03T17:31:08.400Z,9.8
2023-04-03T17:33:08.880Z,9.8
2023-04-03T17:35:11.134Z,9.8
2023-04-03T17:37:08.740Z,9.9
2023-04-03T17:39:08.849Z,9.9
2023-04-03T17:41:09.378Z,9.9
2023-04-03T17:43:08.860Z,9.8
2023-04-03T17:45:09.708Z,9.8
2023-04-03T17:47:09.037Z,9.8
2023-04-03T17:49:09.147Z,9.8
2023-04-03T17:51:11.943Z,9.8
2023-04-03T17:53:09.757Z,9.7
2023-04-03T17:55:09.634Z,9.7
2023-04-03T17:57:09.722Z,9.7
2023-04-03T17:59:09.849Z,9.7
2023-04-03T18:01:11.930Z,9.7
2023-04-03T18:03:10.040Z,9.7
2023-04-03T18:05:10.350Z,9.6
2023-04-03T18:07:10.485Z,9.6
2023-04-03T18:09:14.330Z,9.6
2023-04-03T18:11:11.115Z,9.6
2023-04-03T18:13:10.537Z,9.6
2023-04-03T18:15:11.659Z,9.6
2023-04-03T18:17:11.222Z,9.5
2023-04-03T18:21:13.390Z,9.5
2023-04-03T18:23:11.271Z,9.5
2023-04-03T18:25:11.274Z,9.5
2023-04-03T18:27:13.814Z,9.5
2023-04-03T18:29:12.131Z,9.5
2023-04-03T18:31:15.993Z,9.5
2023-04-03T18:33:11.759Z,9.4
2023-04-03T18:35:11.978Z,9.4
2023-04-03T18:37:11.989Z,9.4
2023-04-03T18:39:12.125Z,9.4
2023-04-03T18:41:12.824Z,9.4
2023-04-03T18:43:13.643Z,9.4
2023-04-03T18:45:15.808Z,9.4
2023-04-03T18:47:12.896Z,9.4
2023-04-03T18:49:13.541Z,9.4
2023-04-03T18:51:13.540Z,9.4
2023-04-03T18:53:12.881Z,9.3
2023-04-03T18:55:12.903Z,9.3
2023-04-03T18:57:13.008Z,9.3
2023-04-03T18:59:13.956Z,9.3
2023-04-03T19:01:13.456Z,9.3
2023-04-03T19:03:13.562Z,9.3
2023-04-03T19:05:15.439Z,9.3
2023-04-03T19:07:13.588Z,9.3
2023-04-03T19:09:14.014Z,9.2
2023-04-03T19:11:13.908Z,9.2
2023-04-03T19:13:13.919Z,9.2
2023-04-03T19:15:14.841Z,9.2
2023-04-03T19:17:14.221Z,9.2
2023-04-03T19:19:14.292Z,9.2
2023-04-03T19:21:14.382Z,9.2
2023-04-03T19:23:14.408Z,9.2
2023-04-03T19:25:14.790Z,9.2
2023-04-03T19:27:14.640Z,9.2
2023-04-03T19:29:14.909Z,9.2
2023-04-03T19:31:17.157Z,9.2
2023-04-03T19:33:14.989Z,9.2
2023-04-03T19:35:15.083Z,9.2
2023-04-03T19:37:15.238Z,9.2
2023-04-03T19:39:15.828Z,9.2
2023-04-03T19:41:19.126Z,9.2
2023-04-03T19:43:16.551Z,9.2
2023-04-03T19:45:15.705Z,9.1
2023-04-03T19:47:16.146Z,9.1
2023-04-03T19:49:15.849Z,9.1
2023-04-03T19:51:16.016Z,9.1
2023-04-03T19:53:16.048Z,9.1
2023-04-03T19:55:16.264Z,9.1
2023-04-03T19:57:16.871Z,9.1
2023-04-03T19:59:16.802Z,9.1
2023-04-03T20:01:16.627Z,9
2023-04-03T20:03:16.661Z,9
2023-04-03T20:05:17.341Z,9.1
2023-04-03T20:07:16.898Z,9.1
2023-04-03T20:09:17.107Z,9.1
2023-04-03T20:11:17.358Z,9.1
2023-04-03T20:13:17.348Z,8.9
2023-04-03T20:15:17.722Z,8.9
2023-04-03T20:17:17.489Z,8.7
2023-04-03T20:19:17.574Z,8.5
2023-04-03T20:21:17.791Z,8.4
2023-04-03T20:23:17.926Z,8.3
2023-04-03T20:25:39.059Z,8.3
2023-04-03T20:27:18.109Z,8.1
2023-04-03T20:29:18.331Z,8.1
2023-04-03T20:31:18.760Z,8.2
2023-04-03T20:33:18.759Z,8.4
2023-04-03T20:35:18.516Z,8.6
2023-04-03T20:37:18.695Z,8.6
2023-04-03T20:39:19.224Z,8.8
2023-04-03T20:41:19.081Z,8.9
2023-04-03T20:43:19.083Z,9
2023-04-03T20:45:19.163Z,9
2023-04-03T20:47:19.281Z,9
2023-04-03T20:49:19.849Z,9
2023-04-03T20:51:20.726Z,9
2023-04-03T20:53:19.630Z,8.9
2023-04-03T20:55:20.438Z,8.9
2023-04-03T20:57:19.765Z,8.9
2023-04-03T20:59:19.914Z,8.9
2023-04-03T21:01:22.055Z,8.7
2023-04-03T21:03:20.356Z,8.8
2023-04-03T21:05:20.274Z,8.8
2023-04-03T21:07:49.480Z,8.8
2023-04-03T21:09:49.684Z,8.8
2023-04-03T21:11:49.908Z,8.8
2023-04-03T21:13:49.777Z,8.8
2023-04-03T21:15:49.920Z,8.9
2023-04-03T21:17:20.034Z,8.9
2023-04-03T21:19:20.817Z,8.9
2023-04-03T21:21:22.992Z,8.9
2023-04-03T21:23:21.259Z,8.9
2023-04-03T21:25:21.193Z,8.9
2023-04-03T21:27:21.315Z,8.9
2023-04-03T21:29:21.327Z,8.9
2023-04-03T21:31:22.399Z,8.9
2023-04-03T21:33:21.557Z,8.7
2023-04-03T21:35:21.685Z,8.7
2023-04-03T21:37:21.665Z,8.7
2023-04-03T21:39:22.680Z,8.7
2023-04-03T21:41:22.083Z,8.7
2023-04-03T21:43:22.058Z,8.7
2023-04-03T21:45:22.180Z,8.6
2023-04-03T21:47:22.219Z,8.6
2023-04-03T21:49:24.147Z,8.6
2023-04-03T21:51:22.691Z,8.6
2023-04-03T21:53:23.042Z,8.6
2023-04-03T21:55:22.678Z,8.6
2023-04-03T21:57:22.776Z,8.6
2023-04-03T21:59:23.034Z,8.6
2023-04-03T22:01:22.982Z,8.5
2023-04-03T22:03:23.235Z,8.5
2023-04-03T22:05:23.258Z,8.5
2023-04-03T22:07:23.217Z,8.5
2023-04-03T22:09:23.421Z,8.4
2023-04-03T22:11:23.699Z,8.4
2023-04-03T22:13:23.454Z,8.3
2023-04-03T22:15:23.579Z,8.3
2023-04-03T22:17:23.728Z,8.2
2023-04-03T22:19:23.748Z,8.2
2023-04-03T22:21:23.901Z,8
2023-04-03T22:23:24.739Z,7.8
2023-04-03T22:25:24.084Z,7.6
2023-04-03T22:27:24.176Z,7.3
2023-04-03T22:29:24.342Z,7
2023-04-03T22:31:24.372Z,7
2023-04-03T22:33:24.459Z,6.9
2023-04-03T22:35:24.743Z,6.8
2023-04-03T22:37:26.147Z,6.8
2023-04-03T22:39:24.617Z,6.7
2023-04-03T22:41:24.805Z,6.7
2023-04-03T22:43:25.321Z,6.7
2023-04-03T22:45:24.983Z,6.6
2023-04-03T22:47:25.090Z,6.6
2023-04-03T22:49:25.155Z,6.6
2023-04-03T22:51:25.162Z,6.6
2023-04-03T22:53:25.282Z,6.6
2023-04-03T22:55:25.726Z,6.4
2023-04-03T22:57:25.350Z,6.4
2023-04-03T22:59:25.564Z,6.4
2023-04-03T23:01:26.075Z,6.3
2023-04-03T23:03:25.557Z,6.2
2023-04-03T23:05:25.762Z,6.2
2023-04-03T23:07:25.719Z,6.2
2023-04-03T23:09:25.703Z,6.2
2023-04-03T23:11:26.132Z,6.2
2023-04-03T23:13:26.432Z,6.2
2023-04-03T23:15:26.104Z,6.1
2023-04-03T23:17:26.152Z,6.1
2023-04-03T23:19:26.119Z,6.1
2023-04-03T23:21:26.380Z,6.1
2023-04-03T23:23:26.400Z,6.1
2023-04-03T23:25:26.306Z,6.1
2023-04-03T23:27:26.318Z,6.1
2023-04-03T23:29:26.371Z,6.1
2023-04-03T23:31:26.683Z,6
2023-04-03T23:33:26.593Z,6
2023-04-03T23:35:26.598Z,6
2023-04-03T23:37:27.311Z,6
2023-04-03T23:39:26.657Z,6
2023-04-03T23:41:26.708Z,6
2023-04-03T23:43:26.828Z,6
2023-04-03T23:45:26.755Z,5.8
2023-04-03T23:47:26.835Z,5.8
2023-04-03T23:49:26.893Z,5.8
2023-04-03T23:51:26.932Z,5.8
2023-04-03T23:53:26.986Z,5.8
2023-04-03T23:55:27.191Z,5.7
2023-04-03T23:57:27.068Z,5.7
2023-04-03T23:59:27.278Z,5.7
